Main page
METAR-TAF:

METAR-TAF

Airports :

Wattisham, England

RAF Wattisham

latitude: 52-07N, longitude: 000-58E, elevation: 87 m

Current weather observation

The report was made 40 minutes ago, at 07:50 UTC
Wind 10 kt from the West/Northwest
Temperature 17°C
Humidity 72%
Pressure 1018 hPa
Visibility 10 km or more

METAR: EGUW 280750Z AUTO 29010KT 9999 NCD 17/12 Q1018

Time: 09:30 (08:30 UTC)


TAF: missing

Weather observations and forecasts of more than 4000 airports (METAR and TAF reports).

The available stations are represented by yellow and red dots on the map.

Hover mouse over dot to see the name of the station.

Then click to see weather observations and forecasts.

To change the map : click on the green buttons with a black cross to zoom in, on the green button with a dash to zoom out, or on the green arrows for adjacent maps.


METAR-TAF: